• Join FlightAware (Why Join?)
  • Login
  • US Flag 
12:52AM EDT


 

Airport Tracker/Info


-or-


 

Live Flight TrackerFlight Track Log ✈ CTL18 ✈ 17-Apr-2013 ✈ KYIP - KBKL

Flight Track Log - Related Links

Times and Time Zones

All times are in EDT time to prevent confusion due to time zone crossing. See the CTL18 flight status page for this flight to view local times or setup timezone preferences in your user account.

Time Position Orientation Groundspeed Altitude Reporting Facility
EDT Latitude Longitude Course Direction KTS MPH feet Rate Location/Type
09:07PM 42.2725 -83.5997 296° West 139 160 2,900  Level Cleveland Center
09:08PM 42.2947 -83.6289 316° Northwest 144 166 3,800 780 Climbing Cleveland Center
09:09PM 42.2936 -83.5925 92° East 117 135 4,500 540 Climbing Cleveland Center
09:10PM 42.2758 -83.5550 123° Southeast 125 144 5,000 240 Climbing Cleveland Center
09:11PM 42.2542 -83.5092 123° Southeast 152 175 5,000  Level Cleveland Center
09:12PM 42.2303 -83.4603 123° Southeast 147 169 5,100  Climbing Cleveland Center
09:13PM 42.2064 -83.4172 127° Southeast 154 177 5,100  Level Cleveland Center
09:14PM 42.1742 -83.3653 130° Southeast 160 184 5,100  Level Cleveland Center
09:15PM 42.1525 -83.3225 124° Southeast 158 182 5,100 -60 Level Cleveland Center
09:16PM 42.1244 -83.2681 125° Southeast 161 185 5,000  Descending Cleveland Center
09:17PM 42.0986 -83.2136 123° Southeast 164 189 5,100  Climbing Cleveland Center
09:18PM 42.0767 -83.1681 123° Southeast 165 190 5,100  Level Cleveland Center
09:19PM 42.0403 -83.1192 135° Southeast 159 183 5,100 -60 Level Cleveland Center
09:20PM 42.0075 -83.0897 146° Southeast 156 180 5,000 -60 Descending Cleveland Center
09:21PM 41.9858 -83.0303 116° Southeast 171 197 5,000  Level Cleveland Center
09:22PM 41.9619 -82.9792 122° Southeast 168 193 5,000  Level Cleveland Center
09:23PM 41.9425 -82.9197 114° Southeast 176 203 5,100  Climbing Cleveland Center
09:24PM 41.9208 -82.8575 115° Southeast 175 201 5,100  Level Cleveland Center
09:25PM 41.8989 -82.7953 115° Southeast 181 208 5,100 -60 Level Cleveland Center
09:26PM 41.8772 -82.7333 115° Southeast 183 211 5,000  Descending Cleveland Center
09:28PM 41.8619 -82.6769 110° East  Level FlightAware Approximate
09:28PM 41.8356 -82.6119 110° East 180 207 5,100  Level Cleveland Center
09:29PM 41.8158 -82.5528 114° Southeast 180 207 5,100  Level Cleveland Center
09:30PM 41.7983 -82.4828 109° East 182 209 5,100 -60 Level Cleveland Center
09:31PM 41.7806 -82.4181 110° East 181 208 5,000 -240 Descending Cleveland Center
09:32PM 41.7628 -82.3536 110° East 190 219 4,700 -300 Descending Cleveland Center
09:33PM 41.7450 -82.2892 110° East 189 217 4,400 -360 Descending Cleveland Center
09:34PM 41.7272 -82.2247 110° East 183 211 4,000 -420 Descending Cleveland Center
09:35PM 41.7114 -82.1575 107° East 179 206 3,600 -360 Descending Cleveland Center
09:36PM 41.6997 -82.0989 105° East 170 196 3,300 -300 Descending Cleveland Center
09:37PM 41.6839 -82.0428 111° Southeast 160 184 3,000 -360 Descending Cleveland Center
09:38PM 41.6678 -81.9897 112° Southeast 155 178 2,600 -360 Descending Cleveland Center
09:39PM 41.6539 -81.9308 108° East 155 178 2,300 -360 Descending Cleveland Center
09:41PM 41.6317 -81.8833 122° Southeast 151 174 1,900 -300 Descending Cleveland Center
09:42PM 41.6050 -81.8411 130° Southeast 147 169 1,700 -180 Descending Cleveland Center
09:43PM 41.5761 -81.8017 134° Southeast 146 168 1,600 -60 Descending Cleveland Center
09:44PM 41.5517 -81.7622 130° Southeast 137 158 1,600 -120 Level Cleveland Center
09:45PM 41.5269 -81.7258 132° Southeast 132 152 1,400 -240 Descending Cleveland Center
09:47PM 41.5175 -81.6833 112° Southeast  Level Estimated
09:54PM 41.5175 -81.6833 112° Southeast  Level Estimated